createdAt,value
2023-02-20T00:01:56.677Z,9.30
2023-02-20T00:04:24.113Z,9.40
2023-02-20T00:06:52.400Z,9.40
2023-02-20T00:09:24.403Z,9.30
2023-02-20T00:11:54.337Z,9.30
2023-02-20T00:14:24.696Z,9.30
2023-02-20T00:16:59.681Z,9.30
2023-02-20T00:19:27.337Z,9.30
2023-02-20T00:21:55.499Z,9.30
2023-02-20T00:24:23.261Z,9.30
2023-02-20T00:26:53.441Z,9.30
2023-02-20T00:29:23.664Z,9.30
2023-02-20T00:32:05.225Z,9.30
2023-02-20T00:34:32.956Z,9.30
2023-02-20T00:37:02.350Z,9.30
2023-02-20T00:39:32.923Z,9.30
2023-02-20T00:42:02.222Z,9.30
2023-02-20T00:44:29.659Z,9.30
2023-02-20T00:47:15.692Z,9.30
2023-02-20T00:49:46.785Z,9.20
2023-02-20T00:52:15.094Z,9.20
2023-02-20T00:54:45.042Z,9.20
2023-02-20T00:57:21.768Z,9.20
2023-02-20T01:00:03.709Z,9.20
2023-02-20T01:02:41.611Z,9.30
2023-02-20T01:05:32.408Z,9.30
2023-02-20T01:07:59.456Z,9.30
2023-02-20T01:10:29.982Z,9.30
2023-02-20T01:12:58.040Z,9.30
2023-02-20T01:15:26.313Z,9.30
2023-02-20T01:17:54.006Z,9.30
2023-02-20T01:20:27.385Z,9.30
2023-02-20T01:23:01.263Z,9.30
2023-02-20T01:25:30.137Z,9.30
2023-02-20T01:27:59.235Z,9.30
2023-02-20T01:30:28.551Z,9.30
2023-02-20T01:32:58.735Z,9.30
2023-02-20T01:35:33.265Z,9.40
2023-02-20T01:38:05.112Z,9.30
2023-02-20T01:40:33.322Z,9.30
2023-02-20T01:43:03.225Z,9.30
2023-02-20T01:45:38.783Z,9.30
2023-02-20T01:48:17.605Z,9.30
2023-02-20T01:50:49.039Z,9.30
2023-02-20T01:53:20.443Z,9.20
2023-02-20T01:56:08.599Z,9.30
2023-02-20T01:58:46.027Z,9.30
2023-02-20T02:01:21.702Z,9.30
2023-02-20T02:03:55.722Z,9.30
2023-02-20T02:06:25.736Z,9.20
2023-02-20T02:08:56.153Z,9.20
2023-02-20T02:11:25.756Z,9.30
2023-02-20T02:13:53.364Z,9.20
2023-02-20T02:16:42.917Z,9.30
2023-02-20T02:19:31.464Z,9.30
2023-02-20T02:22:25.726Z,9.40
2023-02-20T02:25:29.302Z,9.40
2023-02-20T02:28:08.700Z,9.30
2023-02-20T02:31:19.820Z,9.30
2023-02-20T02:34:01.808Z,9.30
2023-02-20T02:36:59.743Z,9.20
2023-02-20T02:39:46.548Z,9.20
2023-02-20T02:42:49.635Z,9.20
2023-02-20T02:45:34.359Z,9.20
2023-02-20T02:48:28.472Z,9.20
2023-02-20T02:51:05.722Z,9.30
2023-02-20T02:53:32.725Z,9.20
2023-02-20T02:56:19.674Z,9.20
2023-02-20T02:58:54.971Z,9.20
2023-02-20T03:01:26.040Z,9.20
2023-02-20T03:03:58.180Z,9.30
2023-02-20T03:06:39.144Z,9.30
2023-02-20T03:09:25.175Z,9.20
2023-02-20T03:11:54.582Z,9.20
2023-02-20T03:15:01.464Z,9.20
2023-02-20T03:17:37.150Z,9.20
2023-02-20T03:20:12.136Z,9.20
2023-02-20T03:22:55.649Z,9.10
2023-02-20T03:25:52.407Z,9.20
2023-02-20T03:28:28.479Z,9.10
2023-02-20T03:31:02.843Z,9.20
2023-02-20T03:33:55.122Z,9.20
2023-02-20T03:36:52.997Z,9.30
2023-02-20T03:39:45.322Z,9.30
2023-02-20T03:42:37.731Z,9.30
2023-02-20T03:45:14.592Z,9.30
2023-02-20T03:47:48.750Z,9.30
2023-02-20T03:50:20.021Z,9.30
2023-02-20T03:52:48.133Z,9.30
2023-02-20T03:55:17.800Z,9.20
2023-02-20T03:57:56.726Z,9.20
2023-02-20T04:00:30.947Z,9.20
2023-02-20T04:03:04.480Z,9.20
2023-02-20T04:05:44.495Z,9.20
2023-02-20T04:08:40.073Z,9.20
2023-02-20T04:11:49.953Z,9.20
2023-02-20T04:14:21.075Z,9.20
2023-02-20T04:16:58.141Z,9.10
2023-02-20T04:19:26.361Z,9.10
2023-02-20T04:22:12.061Z,9.10
2023-02-20T04:25:00.847Z,9.10
2023-02-20T04:27:31.451Z,9.10
2023-02-20T04:30:01.329Z,9.10
2023-02-20T04:32:28.875Z,9.10
2023-02-20T04:35:00.016Z,9.10
2023-02-20T04:37:30.194Z,9.10
2023-02-20T04:39:58.999Z,9.10
2023-02-20T04:42:29.111Z,9.10
2023-02-20T04:45:00.744Z,9.00
2023-02-20T04:47:31.679Z,9.10
2023-02-20T04:50:03.580Z,9.10
2023-02-20T04:52:31.834Z,9.10
2023-02-20T04:55:02.168Z,9.10
2023-02-20T04:57:32.209Z,9.10
2023-02-20T04:59:59.366Z,9.10
2023-02-20T05:02:32.551Z,9.10
2023-02-20T05:05:02.095Z,9.20
2023-02-20T05:07:30.222Z,9.20
2023-02-20T05:09:57.592Z,9.20
2023-02-20T05:12:27.536Z,9.20
2023-02-20T05:14:59.769Z,9.10
2023-02-20T05:17:28.454Z,9.10
2023-02-20T05:19:55.388Z,9.20
2023-02-20T05:22:24.676Z,9.20
2023-02-20T05:24:59.009Z,9.20
2023-02-20T05:27:29.766Z,9.10
2023-02-20T05:29:59.549Z,9.10
2023-02-20T05:32:31.359Z,9.00
2023-02-20T05:34:58.767Z,9.10
2023-02-20T05:37:27.071Z,9.00
2023-02-20T05:39:54.610Z,9.00
2023-02-20T05:42:23.136Z,9.00
2023-02-20T05:44:50.330Z,9.00
2023-02-20T05:47:18.287Z,9.10
2023-02-20T05:49:46.845Z,9.10
2023-02-20T05:52:16.065Z,9.20
2023-02-20T05:54:48.076Z,9.20
2023-02-20T05:57:16.387Z,9.20
2023-02-20T05:59:48.719Z,9.20
2023-02-20T06:02:16.003Z,9.20
2023-02-20T06:04:44.803Z,9.20
2023-02-20T06:07:24.848Z,9.10
2023-02-20T06:09:53.968Z,9.20
2023-02-20T06:12:21.400Z,9.20
2023-02-20T06:14:49.148Z,9.20
2023-02-20T06:17:19.539Z,9.20
2023-02-20T06:19:49.559Z,9.10
2023-02-20T06:22:21.856Z,9.10
2023-02-20T06:24:51.663Z,9.10
2023-02-20T06:27:24.091Z,9.10
2023-02-20T06:29:51.101Z,9.10
2023-02-20T06:32:19.810Z,9.10
2023-02-20T06:37:46.315Z,9.10
2023-02-20T06:40:24.758Z,9.10
2023-02-20T06:46:17.368Z,9.20
2023-02-20T06:48:48.928Z,9.20
2023-02-20T06:51:29.364Z,9.30
2023-02-20T06:54:01.028Z,9.30
2023-02-20T06:56:51.321Z,9.30
2023-02-20T06:59:26.359Z,9.30
2023-02-20T07:01:57.417Z,9.30
2023-02-20T07:04:32.736Z,9.40
2023-02-20T07:07:00.754Z,9.40
2023-02-20T07:09:32.036Z,9.40
2023-02-20T07:11:59.808Z,9.40
2023-02-20T07:14:27.134Z,9.50
2023-02-20T07:16:54.356Z,9.50
2023-02-20T07:19:24.586Z,9.50
2023-02-20T07:21:51.970Z,9.60
2023-02-20T07:27:00.285Z,9.60
2023-02-20T07:29:28.647Z,9.60
2023-02-20T07:31:55.827Z,9.60
2023-02-20T07:34:22.870Z,9.60
2023-02-20T07:36:49.855Z,9.60
2023-02-20T07:39:17.259Z,9.60
2023-02-20T07:41:44.403Z,9.60
2023-02-20T07:44:39.317Z,9.60
2023-02-20T07:47:06.261Z,9.60
2023-02-20T07:49:33.250Z,9.70
2023-02-20T07:52:02.068Z,9.70
2023-02-20T07:54:29.326Z,9.70
2023-02-20T07:56:57.756Z,9.80
2023-02-20T07:59:24.747Z,9.80
2023-02-20T08:01:54.012Z,9.80
2023-02-20T08:04:23.837Z,9.90
2023-02-20T08:06:50.837Z,9.90
2023-02-20T08:09:18.080Z,10.00
2023-02-20T08:11:45.464Z,10.00
2023-02-20T08:14:14.483Z,10.00
2023-02-20T08:16:41.641Z,10.00
2023-02-20T08:19:09.306Z,10.10
2023-02-20T08:21:36.377Z,10.10
2023-02-20T08:24:03.543Z,10.10
2023-02-20T08:26:30.817Z,10.20
2023-02-20T08:29:01.444Z,10.20
2023-02-20T08:31:33.108Z,10.30
2023-02-20T08:34:00.772Z,10.40
2023-02-20T08:36:27.975Z,10.40
2023-02-20T08:38:55.206Z,10.40
2023-02-20T08:41:22.301Z,10.40
2023-02-20T08:43:49.424Z,10.50
2023-02-20T08:46:40.060Z,10.50
2023-02-20T08:49:07.302Z,10.60
2023-02-20T08:51:34.345Z,10.60
2023-02-20T08:54:01.517Z,10.60
2023-02-20T08:56:28.646Z,10.60
2023-02-20T08:58:55.774Z,10.70
2023-02-20T09:01:22.819Z,10.70
2023-02-20T09:03:51.464Z,10.70
2023-02-20T09:06:18.457Z,10.80
2023-02-20T09:08:46.670Z,10.80
2023-02-20T09:11:14.639Z,10.90
2023-02-20T09:13:46.185Z,10.90
2023-02-20T09:16:16.738Z,11.00
2023-02-20T09:18:46.665Z,11.00
2023-02-20T09:21:16.374Z,11.00
2023-02-20T09:23:43.501Z,11.00
2023-02-20T09:26:10.896Z,11.10
2023-02-20T09:28:38.887Z,11.10
2023-02-20T09:31:06.409Z,11.20
2023-02-20T09:33:33.686Z,11.20
2023-02-20T09:36:00.974Z,11.30
2023-02-20T09:38:29.507Z,11.40
2023-02-20T09:41:02.459Z,11.60
2023-02-20T09:43:58.333Z,11.70
2023-02-20T09:46:26.375Z,11.70
2023-02-20T09:48:59.034Z,11.80
2023-02-20T09:51:35.423Z,11.90
2023-02-20T09:54:28.492Z,12.00
2023-02-20T09:57:03.341Z,12.10
2023-02-20T09:59:38.838Z,12.30
2023-02-20T10:02:17.695Z,12.40
2023-02-20T10:05:00.262Z,12.60
2023-02-20T10:07:42.177Z,12.70
2023-02-20T10:10:28.078Z,12.90
2023-02-20T10:13:16.913Z,13.10
2023-02-20T10:15:53.839Z,13.40
2023-02-20T10:18:47.550Z,13.50
2023-02-20T10:21:56.286Z,13.80
2023-02-20T10:24:46.918Z,14.00
2023-02-20T10:27:30.723Z,14.30
2023-02-20T10:30:00.845Z,14.30
2023-02-20T10:32:41.559Z,14.40
2023-02-20T10:35:13.036Z,14.60
2023-02-20T10:37:47.800Z,14.60
2023-02-20T10:40:36.910Z,14.80
2023-02-20T10:43:10.090Z,15.00
2023-02-20T10:46:12.494Z,15.10
2023-02-20T10:48:40.563Z,15.00
2023-02-20T10:51:26.345Z,15.20
2023-02-20T10:54:02.058Z,15.20
2023-02-20T10:56:57.258Z,15.40
2023-02-20T10:59:34.657Z,15.40
2023-02-20T11:02:37.917Z,15.40
2023-02-20T11:05:13.693Z,15.20
2023-02-20T11:07:40.943Z,15.00
2023-02-20T11:10:11.487Z,14.80
2023-02-20T11:13:02.716Z,14.70
2023-02-20T11:15:33.432Z,14.80
2023-02-20T11:18:00.723Z,15.00
2023-02-20T11:20:37.140Z,15.30
2023-02-20T11:23:08.628Z,15.50
2023-02-20T11:25:37.533Z,15.60
2023-02-20T11:28:25.031Z,15.70
2023-02-20T11:31:06.702Z,15.70
2023-02-20T11:33:42.626Z,15.80
2023-02-20T11:36:20.493Z,15.90
2023-02-20T11:38:49.317Z,15.90
2023-02-20T11:41:29.343Z,16.00
2023-02-20T11:44:13.253Z,16.00
2023-02-20T11:46:40.611Z,16.00
2023-02-20T11:49:11.777Z,16.10
2023-02-20T11:51:44.587Z,16.00
2023-02-20T11:54:21.493Z,15.90
2023-02-20T11:57:01.425Z,15.90
2023-02-20T11:59:30.614Z,15.70
2023-02-20T12:02:11.307Z,15.50
2023-02-20T12:04:38.491Z,15.50
2023-02-20T12:07:26.193Z,15.60
2023-02-20T12:09:59.142Z,15.60
2023-02-20T12:12:30.593Z,15.60
2023-02-20T12:14:57.556Z,15.60
2023-02-20T12:17:42.870Z,15.50
2023-02-20T12:20:30.303Z,15.60
2023-02-20T12:23:57.710Z,15.70
2023-02-20T12:26:56.876Z,15.90
2023-02-20T12:33:02.426Z,15.90
2023-02-20T12:35:57.594Z,15.80
2023-02-20T12:39:19.837Z,15.70
2023-02-20T12:42:22.517Z,15.70
2023-02-20T12:45:45.311Z,15.80
2023-02-20T12:52:22.669Z,16.40
2023-02-20T12:55:03.721Z,16.70
2023-02-20T12:58:09.672Z,16.90
2023-02-20T13:00:49.104Z,17.20
2023-02-20T13:03:40.199Z,17.20
2023-02-20T13:06:16.321Z,17.10
2023-02-20T13:09:23.388Z,17.00
2023-02-20T13:12:06.946Z,16.80
2023-02-20T13:14:49.386Z,16.60
2023-02-20T13:17:42.076Z,16.60
2023-02-20T13:20:24.328Z,16.60
2023-02-20T13:26:38.003Z,16.50
2023-02-20T13:29:20.703Z,16.40
2023-02-20T13:31:55.416Z,16.30
2023-02-20T13:34:35.349Z,16.40
2023-02-20T13:37:06.185Z,16.40
2023-02-20T13:39:42.147Z,16.50
2023-02-20T13:42:35.233Z,16.50
2023-02-20T13:45:05.748Z,16.60
2023-02-20T13:47:38.377Z,16.50
2023-02-20T13:50:28.150Z,16.40
2023-02-20T13:53:22.108Z,16.50
2023-02-20T13:55:49.349Z,16.50
2023-02-20T13:58:38.407Z,16.70
2023-02-20T14:01:06.351Z,16.70
2023-02-20T14:03:35.753Z,16.60
2023-02-20T14:06:32.722Z,16.60
2023-02-20T14:09:19.649Z,16.60
2023-02-20T14:11:49.604Z,16.60
2023-02-20T14:14:32.579Z,16.40
2023-02-20T14:17:41.918Z,16.20
2023-02-20T14:20:23.246Z,16.10
2023-02-20T14:23:11.073Z,15.90
2023-02-20T14:25:52.068Z,15.80
2023-02-20T14:28:31.648Z,15.60
2023-02-20T14:31:26.374Z,15.40
2023-02-20T14:34:08.989Z,15.30
2023-02-20T14:36:57.994Z,15.20
2023-02-20T14:39:42.430Z,15.10
2023-02-20T14:42:37.822Z,15.10
2023-02-20T14:45:25.095Z,15.10
2023-02-20T14:48:01.817Z,15.10
2023-02-20T14:50:35.981Z,15.10
2023-02-20T14:53:23.980Z,15.10
2023-02-20T14:55:53.004Z,15.30
2023-02-20T14:58:28.161Z,15.40
2023-02-20T15:00:57.994Z,15.30
2023-02-20T15:03:31.548Z,15.20
2023-02-20T15:06:07.947Z,15.10
2023-02-20T15:08:39.108Z,15.10
2023-02-20T15:11:10.130Z,15.10
2023-02-20T15:13:44.766Z,15.10
2023-02-20T15:16:40.588Z,15.20
2023-02-20T15:19:25.156Z,15.30
2023-02-20T15:22:00.637Z,15.20
2023-02-20T15:24:38.390Z,15.20
2023-02-20T15:27:24.908Z,15.20
2023-02-20T15:30:17.243Z,15.20
2023-02-20T15:32:58.563Z,15.10
2023-02-20T15:35:30.001Z,15.10
2023-02-20T15:38:04.217Z,15.00
2023-02-20T15:40:33.909Z,15.00
2023-02-20T15:43:18.776Z,14.90
2023-02-20T15:46:02.443Z,14.90
2023-02-20T15:48:33.066Z,14.80
2023-02-20T15:51:25.360Z,14.70
2023-02-20T15:54:28.285Z,14.70
2023-02-20T15:57:17.975Z,14.60
2023-02-20T15:59:50.623Z,14.50
2023-02-20T16:02:30.133Z,14.40
2023-02-20T16:08:47.357Z,14.20
2023-02-20T16:11:21.652Z,14.20
2023-02-20T16:13:56.540Z,14.10
2023-02-20T16:16:36.977Z,14.10
2023-02-20T16:19:11.851Z,14.10
2023-02-20T16:21:42.756Z,14.00
2023-02-20T16:24:13.375Z,14.00
2023-02-20T16:26:44.325Z,13.90
2023-02-20T16:29:27.632Z,13.80
2023-02-20T16:32:00.715Z,13.70
2023-02-20T16:34:31.817Z,13.70
2023-02-20T16:36:59.952Z,13.60
2023-02-20T16:39:27.639Z,13.50
2023-02-20T16:41:58.202Z,13.40
2023-02-20T16:44:31.180Z,13.30
2023-02-20T16:47:00.175Z,13.20
2023-02-20T16:49:27.484Z,13.10
2023-02-20T16:52:01.501Z,13.00
2023-02-20T16:54:28.918Z,12.90
2023-02-20T16:56:56.447Z,12.80
2023-02-20T16:59:23.522Z,12.70
2023-02-20T17:01:51.716Z,12.70
2023-02-20T17:04:19.974Z,12.60
2023-02-20T17:06:47.353Z,12.50
2023-02-20T17:09:14.687Z,12.40
2023-02-20T17:11:42.023Z,12.40
2023-02-20T17:14:09.581Z,12.30
2023-02-20T17:16:36.723Z,12.30
2023-02-20T17:19:04.000Z,12.10
2023-02-20T17:21:31.951Z,12.10
2023-02-20T17:23:59.065Z,12.10
2023-02-20T17:26:27.010Z,12.00
2023-02-20T17:28:54.232Z,12.00
2023-02-20T17:31:22.796Z,11.90
2023-02-20T17:33:49.854Z,11.90
2023-02-20T17:36:17.154Z,11.80
2023-02-20T17:38:46.906Z,11.80
2023-02-20T17:41:14.143Z,11.80
2023-02-20T17:43:41.248Z,11.80
2023-02-20T17:46:14.879Z,11.80
2023-02-20T17:48:44.283Z,11.80
2023-02-20T17:51:17.272Z,11.70
2023-02-20T17:53:46.345Z,11.70
2023-02-20T17:56:16.618Z,11.70
2023-02-20T17:58:45.311Z,11.70
2023-02-20T18:01:12.415Z,11.60
2023-02-20T18:03:39.413Z,11.60
2023-02-20T18:06:08.224Z,11.50
2023-02-20T18:08:37.951Z,11.50
2023-02-20T18:11:05.172Z,11.40
2023-02-20T18:13:34.731Z,11.40
2023-02-20T18:16:02.072Z,11.40
2023-02-20T18:18:31.991Z,11.40
2023-02-20T18:20:59.568Z,11.40
2023-02-20T18:23:29.079Z,11.30
2023-02-20T18:25:57.411Z,11.20
2023-02-20T18:28:24.705Z,11.10
2023-02-20T18:30:53.064Z,11.00
2023-02-20T18:33:20.105Z,11.00
2023-02-20T18:35:55.415Z,11.00
2023-02-20T18:38:30.509Z,11.00
2023-02-20T18:40:58.832Z,11.00
2023-02-20T18:43:31.423Z,11.00
2023-02-20T18:46:10.279Z,11.00
2023-02-20T18:48:41.060Z,11.00
2023-02-20T18:51:08.260Z,10.80
2023-02-20T18:53:47.923Z,10.80
2023-02-20T18:56:15.367Z,10.60
2023-02-20T18:58:42.857Z,10.50
2023-02-20T19:01:17.718Z,10.50
2023-02-20T19:03:47.027Z,10.50
2023-02-20T19:09:48.672Z,10.70
2023-02-20T19:12:41.479Z,10.70
2023-02-20T19:15:26.580Z,10.70
2023-02-20T19:17:58.052Z,10.70
2023-02-20T19:20:29.230Z,10.70
2023-02-20T19:23:00.097Z,10.80
2023-02-20T19:25:28.826Z,10.80
2023-02-20T19:27:57.340Z,10.80
2023-02-20T19:30:28.595Z,10.80
2023-02-20T19:32:58.132Z,10.70
2023-02-20T19:35:25.369Z,10.70
2023-02-20T19:37:56.050Z,10.70
2023-02-20T19:40:26.297Z,10.70
2023-02-20T19:42:55.749Z,10.60
2023-02-20T19:45:26.958Z,10.50
2023-02-20T19:47:58.926Z,10.60
2023-02-20T19:50:31.750Z,10.60
2023-02-20T19:53:02.840Z,10.50
2023-02-20T19:55:37.577Z,10.50
2023-02-20T19:58:04.661Z,10.50
2023-02-20T20:00:31.828Z,10.50
2023-02-20T20:02:59.984Z,10.60
2023-02-20T20:05:29.348Z,10.50
2023-02-20T20:07:58.869Z,10.50
2023-02-20T20:10:28.839Z,10.50
2023-02-20T20:12:55.890Z,10.50
2023-02-20T20:15:24.977Z,10.50
2023-02-20T20:17:59.600Z,10.40
2023-02-20T20:20:28.342Z,10.40
2023-02-20T20:29:00.296Z,10.30
2023-02-20T20:31:41.105Z,10.30
2023-02-20T20:34:13.084Z,10.30
2023-02-20T20:36:44.545Z,10.30
2023-02-20T23:04:55.774Z,9.20
2023-02-20T23:07:43.395Z,9.00
2023-02-20T23:10:31.430Z,9.00
2023-02-20T23:13:25.544Z,8.90
2023-02-20T23:16:17.149Z,8.80
2023-02-20T23:19:06.334Z,8.80
2023-02-20T23:21:53.149Z,8.80
2023-02-20T23:24:44.062Z,8.70
2023-02-20T23:30:29.589Z,8.60
2023-02-20T23:33:20.050Z,8.60
2023-02-20T23:36:05.876Z,8.60
2023-02-20T23:38:54.135Z,8.50
2023-02-20T23:41:43.369Z,8.40
2023-02-20T23:44:31.573Z,8.40
2023-02-20T23:47:18.440Z,8.50
2023-02-20T23:50:06.178Z,8.40
2023-02-20T23:52:55.629Z,8.40
2023-02-20T23:55:45.630Z,8.40
2023-02-20T23:58:32.417Z,8.30
